createdAt,value
2019-02-07T00:00:50.851Z,40.90
2019-02-07T00:03:19.856Z,40.17
2019-02-07T00:05:48.937Z,40.95
2019-02-07T00:08:18.392Z,37.98
2019-02-07T00:10:47.447Z,41.08
2019-02-07T00:13:16.668Z,40.35
2019-02-07T00:15:45.652Z,41.23
2019-02-07T00:18:14.855Z,44.45
2019-02-07T00:20:44.574Z,36.50
2019-02-07T00:23:13.480Z,42.90
2019-02-07T00:25:42.428Z,44.20
2019-02-07T00:28:11.348Z,41.20
2019-02-07T00:30:40.328Z,42.27
2019-02-07T00:33:09.204Z,45.80
2019-02-07T00:35:38.240Z,41.75
2019-02-07T00:38:07.156Z,40.50
2019-02-07T00:40:36.144Z,43.83
2019-02-07T00:43:05.140Z,40.03
2019-02-07T00:45:34.076Z,38.20
2019-02-07T00:48:03.392Z,39.65
2019-02-07T00:50:32.189Z,39.73
2019-02-07T00:53:01.167Z,42.08
2019-02-07T00:55:30.138Z,36.75
2019-02-07T00:57:59.140Z,35.95
2019-02-07T01:00:28.089Z,38.92
2019-02-07T01:02:57.108Z,37.38
2019-02-07T01:05:26.288Z,40.03
2019-02-07T01:07:55.249Z,38.88
2019-02-07T01:10:25.721Z,36.68
2019-02-07T01:12:55.100Z,36.40
2019-02-07T01:15:25.394Z,34.10
2019-02-07T01:17:54.383Z,35.60
2019-02-07T01:20:23.405Z,34.75
2019-02-07T01:22:52.365Z,35.63
2019-02-07T01:25:21.785Z,34.75
2019-02-07T01:27:50.985Z,37.58
2019-02-07T01:30:21.448Z,37.28
2019-02-07T01:32:50.516Z,34.48
2019-02-07T01:35:19.512Z,36.13
2019-02-07T01:37:48.508Z,34.43
2019-02-07T01:40:18.384Z,36.93
2019-02-07T01:42:47.640Z,36.05
2019-02-07T01:45:19.055Z,38.05
2019-02-07T01:47:48.056Z,36.33
2019-02-07T01:50:19.148Z,38.28
2019-02-07T01:52:48.509Z,39.92
2019-02-07T01:55:17.808Z,34.85
2019-02-07T01:57:46.761Z,35.48
2019-02-07T02:00:17.050Z,34.73
2019-02-07T02:02:46.772Z,32.67
2019-02-07T02:05:17.072Z,32.75
2019-02-07T02:07:47.156Z,37.15
2019-02-07T02:10:18.844Z,34.40
2019-02-07T02:12:47.812Z,36.58
2019-02-07T02:15:24.729Z,35.15
2019-02-07T02:17:51.095Z,35.80
2019-02-07T02:20:21.323Z,35.23
2019-02-07T02:22:50.688Z,38.02
2019-02-07T02:25:19.828Z,39.95
2019-02-07T02:27:48.740Z,30.92
2019-02-07T02:30:21.662Z,31.93
2019-02-07T02:32:50.625Z,32.83
2019-02-07T02:35:20.191Z,31.57
2019-02-07T02:37:49.157Z,39.83
2019-02-07T02:40:18.437Z,35.00
2019-02-07T02:42:47.420Z,32.48
2019-02-07T02:45:16.901Z,36.90
2019-02-07T02:47:45.905Z,32.10
2019-02-07T02:50:16.684Z,33.90
2019-02-07T02:52:45.845Z,34.95
2019-02-07T02:55:40.340Z,38.42
2019-02-07T02:58:09.319Z,32.28
2019-02-07T03:00:58.061Z,36.68
2019-02-07T03:03:49.374Z,33.25
2019-02-07T03:06:36.280Z,33.05
2019-02-07T03:09:36.257Z,31.85
2019-02-07T03:12:40.161Z,32.25
2019-02-07T03:15:26.257Z,37.15
2019-02-07T03:18:12.862Z,34.67
2019-02-07T03:21:09.948Z,34.85
2019-02-07T03:24:08.108Z,33.73
2019-02-07T03:26:57.656Z,39.20
2019-02-07T03:29:48.581Z,35.50
2019-02-07T03:32:26.793Z,37.30
2019-02-07T03:35:18.049Z,37.53
2019-02-07T03:37:57.536Z,42.75
2019-02-07T03:40:46.805Z,36.93
2019-02-07T03:43:25.460Z,36.58
2019-02-07T03:46:16.552Z,36.00
2019-02-07T03:48:53.600Z,34.80
2019-02-07T03:51:40.348Z,35.08
2019-02-07T03:54:28.399Z,38.85
2019-02-07T03:57:14.981Z,39.40
2019-02-07T04:00:08.988Z,35.10
2019-02-07T04:02:56.625Z,37.90
2019-02-07T04:05:43.597Z,32.48
2019-02-07T04:08:37.871Z,36.35
2019-02-07T04:11:25.052Z,39.75
2019-02-07T04:14:31.487Z,38.40
2019-02-07T04:17:24.811Z,34.45
2019-02-07T04:20:15.517Z,39.92
2019-02-07T04:22:59.691Z,38.38
2019-02-07T04:25:47.657Z,35.68
2019-02-07T04:28:22.100Z,39.13
2019-02-07T04:31:08.788Z,42.83
2019-02-07T04:33:55.768Z,38.78
2019-02-07T04:36:42.745Z,39.80
2019-02-07T04:39:40.533Z,35.60
2019-02-07T04:42:26.840Z,40.20
2019-02-07T04:45:14.713Z,34.03
2019-02-07T04:48:04.749Z,42.08
2019-02-07T04:50:57.119Z,38.05
2019-02-07T04:53:39.629Z,39.70
2019-02-07T04:56:24.140Z,41.60
2019-02-07T04:59:21.204Z,36.58
2019-02-07T05:02:24.645Z,42.80
2019-02-07T05:05:18.729Z,39.45
2019-02-07T05:08:06.800Z,42.05
2019-02-07T05:10:53.432Z,41.70
2019-02-07T05:13:33.445Z,48.02
2019-02-07T05:16:13.843Z,43.65
2019-02-07T05:18:53.288Z,43.05
2019-02-07T05:21:41.157Z,44.90
2019-02-07T05:24:32.080Z,42.23
2019-02-07T05:27:38.684Z,44.77
2019-02-07T05:30:29.190Z,45.55
2019-02-07T05:33:17.149Z,41.98
2019-02-07T05:36:03.964Z,42.25
2019-02-07T05:38:46.946Z,39.73
2019-02-07T05:41:29.176Z,42.73
2019-02-07T05:44:17.385Z,44.27
2019-02-07T05:47:01.477Z,39.20
2019-02-07T05:49:57.766Z,41.50
2019-02-07T05:52:52.645Z,43.58
2019-02-07T05:55:41.089Z,39.15
2019-02-07T05:58:28.428Z,41.35
2019-02-07T06:01:18.124Z,39.70
2019-02-07T06:03:53.961Z,38.13
2019-02-07T06:07:00.277Z,43.80
2019-02-07T06:09:49.929Z,45.98
2019-02-07T06:12:46.536Z,41.20
2019-02-07T06:15:31.644Z,42.23
2019-02-07T06:18:19.517Z,36.88
2019-02-07T06:21:13.862Z,47.80
2019-02-07T06:24:14.001Z,42.13
2019-02-07T06:27:17.004Z,40.98
2019-02-07T06:30:04.865Z,37.15
2019-02-07T06:33:07.764Z,38.42
2019-02-07T06:35:44.148Z,44.00
2019-02-07T06:38:30.728Z,42.98
2019-02-07T06:41:16.024Z,35.83
2019-02-07T06:43:51.982Z,43.35
2019-02-07T06:46:46.040Z,42.43
2019-02-07T06:49:36.793Z,41.08
2019-02-07T06:52:27.921Z,40.35
2019-02-07T06:55:15.904Z,46.50
2019-02-07T06:58:02.629Z,42.65
2019-02-07T07:00:49.473Z,49.18
2019-02-07T07:03:37.532Z,43.95
2019-02-07T07:06:25.561Z,42.88
2019-02-07T07:09:09.170Z,46.98
2019-02-07T07:12:06.363Z,43.60
2019-02-07T07:15:03.578Z,37.40
2019-02-07T07:18:03.920Z,45.08
2019-02-07T07:20:50.968Z,48.40
2019-02-07T07:23:37.900Z,44.53
2019-02-07T07:26:31.941Z,38.02
2019-02-07T07:29:19.973Z,45.78
2019-02-07T07:32:08.784Z,39.30
2019-02-07T07:34:50.677Z,46.50
2019-02-07T07:37:39.044Z,47.65
2019-02-07T07:40:27.346Z,41.50
2019-02-07T07:43:18.887Z,42.95
2019-02-07T07:46:04.760Z,46.60
2019-02-07T07:48:47.100Z,44.05
2019-02-07T07:51:35.088Z,41.05
2019-02-07T07:54:23.653Z,41.25
2019-02-07T07:57:14.828Z,41.58
2019-02-07T08:00:04.552Z,45.20
2019-02-07T08:03:07.916Z,43.40
2019-02-07T08:05:47.441Z,39.42
2019-02-07T08:08:34.204Z,44.45
2019-02-07T08:11:25.261Z,43.05
2019-02-07T08:14:12.464Z,42.45
2019-02-07T08:16:59.131Z,41.53
2019-02-07T08:19:51.941Z,40.73
2019-02-07T08:22:38.885Z,43.15
2019-02-07T08:25:35.667Z,44.55
2019-02-07T08:28:16.252Z,43.02
2019-02-07T08:31:13.488Z,45.80
2019-02-07T08:33:55.877Z,43.05
2019-02-07T08:36:53.120Z,43.33
2019-02-07T08:39:39.340Z,40.17
2019-02-07T08:42:39.609Z,41.00
2019-02-07T08:45:35.046Z,44.55
2019-02-07T08:48:23.412Z,40.73
2019-02-07T08:51:12.677Z,43.00
2019-02-07T08:54:05.337Z,39.65
2019-02-07T08:56:59.473Z,43.70
2019-02-07T08:59:50.905Z,41.53
2019-02-07T09:02:38.350Z,45.38
2019-02-07T09:05:42.058Z,39.18
2019-02-07T09:08:26.816Z,42.88
2019-02-07T09:11:30.104Z,35.88
2019-02-07T09:14:21.300Z,40.78
2019-02-07T09:17:15.184Z,39.53
2019-02-07T09:20:09.297Z,38.40
2019-02-07T09:22:55.382Z,40.50
2019-02-07T09:25:41.892Z,36.00
2019-02-07T09:28:39.116Z,41.45
2019-02-07T09:31:25.963Z,41.00
2019-02-07T09:34:17.018Z,41.28
2019-02-07T09:37:07.968Z,45.25
2019-02-07T09:40:01.720Z,36.70
2019-02-07T09:42:48.392Z,44.73
2019-02-07T09:45:37.660Z,41.20
2019-02-07T09:48:25.613Z,39.78
2019-02-07T09:51:05.208Z,38.13
2019-02-07T09:53:45.728Z,39.45
2019-02-07T09:56:32.604Z,40.65
2019-02-07T09:59:26.893Z,37.55
2019-02-07T10:02:10.584Z,36.77
2019-02-07T10:04:57.217Z,39.70
2019-02-07T10:07:43.772Z,39.08
2019-02-07T10:10:23.378Z,38.25
2019-02-07T10:13:14.548Z,35.48
2019-02-07T10:16:03.912Z,31.45
2019-02-07T10:18:51.243Z,39.05
2019-02-07T10:21:54.803Z,34.50
2019-02-07T10:24:42.895Z,34.60
2019-02-07T10:27:22.708Z,32.00
2019-02-07T10:30:10.692Z,34.43
2019-02-07T10:32:55.612Z,41.00
2019-02-07T10:35:43.500Z,32.05
2019-02-07T10:38:40.596Z,34.08
2019-02-07T10:41:32.065Z,34.95
2019-02-07T10:44:38.725Z,31.15
2019-02-07T10:47:26.685Z,30.08
2019-02-07T10:50:27.376Z,30.85
2019-02-07T10:53:21.284Z,27.77
2019-02-07T10:56:17.360Z,27.60
2019-02-07T10:59:14.213Z,27.42
2019-02-07T11:02:13.444Z,26.57
2019-02-07T11:05:00.378Z,27.70
2019-02-07T11:08:00.622Z,27.05
2019-02-07T11:10:56.681Z,30.40
2019-02-07T11:13:56.897Z,27.15
2019-02-07T11:16:51.061Z,23.75
2019-02-07T11:19:54.184Z,25.10
2019-02-07T11:22:47.228Z,28.42
2019-02-07T11:25:44.717Z,27.60
2019-02-07T11:28:39.700Z,26.10
2019-02-07T11:31:18.204Z,25.43
2019-02-07T11:34:04.856Z,27.55
2019-02-07T11:36:54.131Z,25.43
2019-02-07T11:39:53.628Z,30.35
2019-02-07T11:42:51.064Z,24.75
2019-02-07T11:45:37.405Z,26.62
2019-02-07T11:48:31.824Z,28.70
2019-02-07T11:51:27.504Z,27.00
2019-02-07T11:54:27.380Z,27.05
2019-02-07T11:57:30.833Z,26.80
2019-02-07T12:00:18.951Z,25.57
2019-02-07T12:03:05.628Z,26.75
2019-02-07T12:05:56.333Z,26.27
2019-02-07T12:08:53.344Z,26.48
2019-02-07T12:11:50.597Z,28.03
2019-02-07T12:14:31.296Z,26.45
2019-02-07T12:17:17.800Z,25.05
2019-02-07T12:20:24.173Z,25.62
2019-02-07T12:23:11.052Z,26.37
2019-02-07T12:25:59.280Z,24.65
2019-02-07T12:28:39.791Z,23.92
2019-02-07T12:31:33.020Z,24.87
2019-02-07T12:34:20.692Z,24.43
2019-02-07T12:36:56.118Z,23.37
2019-02-07T12:39:35.060Z,24.98
2019-02-07T12:42:17.348Z,24.10
2019-02-07T12:45:05.300Z,20.67
2019-02-07T12:48:08.351Z,21.87
2019-02-07T12:51:02.304Z,20.27
2019-02-07T12:53:50.297Z,22.90
2019-02-07T12:56:51.172Z,16.93
2019-02-07T12:59:54.765Z,15.77
2019-02-07T13:02:41.061Z,19.30
2019-02-07T13:05:32.810Z,30.13
2019-02-07T13:08:10.568Z,16.57
2019-02-07T13:10:56.633Z,22.43
2019-02-07T13:13:43.444Z,18.57
2019-02-07T13:16:23.544Z,21.50
2019-02-07T13:19:10.665Z,18.17
2019-02-07T13:21:53.512Z,19.67
2019-02-07T13:24:41.493Z,19.23
2019-02-07T13:27:29.718Z,25.10
2019-02-07T13:30:19.226Z,43.80
2019-02-07T13:32:59.501Z,93.73
2019-02-07T13:35:46.199Z,22.73
2019-02-07T13:38:25.532Z,70.27
2019-02-07T13:41:19.556Z,15.60
2019-02-07T13:44:13.304Z,17.10
2019-02-07T13:46:53.307Z,15.60
2019-02-07T13:49:34.788Z,15.80
2019-02-07T13:52:29.347Z,16.60
2019-02-07T13:55:12.099Z,15.17
2019-02-07T13:57:58.852Z,14.03
2019-02-07T14:00:55.968Z,13.73
2019-02-07T14:03:56.032Z,14.80
2019-02-07T14:06:56.025Z,18.73
2019-02-07T14:09:52.944Z,13.10
2019-02-07T14:12:39.441Z,13.60
2019-02-07T14:15:28.417Z,13.73
2019-02-07T14:18:27.190Z,13.00
2019-02-07T14:21:08.160Z,13.67
2019-02-07T14:23:55.106Z,12.97
2019-02-07T14:26:55.444Z,13.70
2019-02-07T14:29:42.601Z,13.90
2019-02-07T14:32:29.701Z,12.57
2019-02-07T14:35:27.048Z,10.40
2019-02-07T14:38:14.449Z,11.37
2019-02-07T14:41:20.776Z,8.00
2019-02-07T14:44:02.580Z,9.27
2019-02-07T14:46:47.895Z,9.17
2019-02-07T14:49:17.076Z,8.90
2019-02-07T14:51:46.327Z,7.67
2019-02-07T14:54:15.780Z,8.50
2019-02-07T14:56:44.898Z,7.87
2019-02-07T14:59:14.160Z,9.50
2019-02-07T15:01:43.097Z,9.97
2019-02-07T15:04:12.089Z,9.43
2019-02-07T15:06:41.548Z,7.17
2019-02-07T15:09:16.568Z,10.80
2019-02-07T15:11:45.556Z,9.47
2019-02-07T15:14:14.620Z,10.47
2019-02-07T15:16:43.693Z,8.57
2019-02-07T15:19:12.708Z,11.00
2019-02-07T15:21:41.740Z,12.20
2019-02-07T15:24:11.204Z,11.70
2019-02-07T15:26:40.481Z,14.77
2019-02-07T15:29:09.424Z,17.43
2019-02-07T15:31:38.331Z,16.33
2019-02-07T15:34:08.796Z,19.60
2019-02-07T15:36:38.936Z,17.83
2019-02-07T15:39:10.248Z,20.83
2019-02-07T15:41:39.240Z,18.63
2019-02-07T15:44:08.237Z,18.80
2019-02-07T15:46:37.292Z,17.30
2019-02-07T15:49:06.995Z,19.13
2019-02-07T15:51:35.860Z,16.97
2019-02-07T15:54:05.509Z,18.20
2019-02-07T15:56:34.528Z,16.37
2019-02-07T15:59:28.872Z,18.23
2019-02-07T16:02:11.460Z,17.07
2019-02-07T16:04:42.880Z,16.10
2019-02-07T16:07:12.061Z,21.00
2019-02-07T16:09:41.442Z,17.50
2019-02-07T16:12:10.424Z,16.97
2019-02-07T16:14:39.968Z,16.93
2019-02-07T16:17:08.952Z,18.53
2019-02-07T16:19:37.865Z,19.90
2019-02-07T16:22:06.824Z,17.87
2019-02-07T16:24:35.876Z,18.50
2019-02-07T16:27:05.773Z,19.63
2019-02-07T16:29:34.777Z,18.40
2019-02-07T16:32:04.961Z,19.33
2019-02-07T16:34:33.874Z,20.33
2019-02-07T16:37:03.111Z,20.30
2019-02-07T16:39:31.976Z,19.93
2019-02-07T16:42:06.079Z,18.97
2019-02-07T16:44:31.623Z,19.93
2019-02-07T16:47:00.618Z,19.93
2019-02-07T16:49:29.576Z,20.10
2019-02-07T16:51:58.456Z,21.93
2019-02-07T16:54:27.628Z,20.70
2019-02-07T16:56:56.533Z,22.10
2019-02-07T16:59:25.538Z,19.73
2019-02-07T17:01:54.556Z,22.27
2019-02-07T17:04:23.540Z,20.93
2019-02-07T17:06:52.477Z,23.50
2019-02-07T17:09:30.522Z,20.93
2019-02-07T17:12:01.019Z,19.37
2019-02-07T17:14:30.325Z,20.90
2019-02-07T17:17:18.345Z,20.60
2019-02-07T17:19:47.291Z,19.80
2019-02-07T17:22:16.252Z,21.57
2019-02-07T17:24:45.908Z,20.83
2019-02-07T17:27:15.156Z,20.70
2019-02-07T17:29:44.316Z,21.53
2019-02-07T17:32:13.600Z,21.43
2019-02-07T17:34:42.488Z,22.60
2019-02-07T17:37:11.281Z,20.63
2019-02-07T17:39:40.264Z,22.77
2019-02-07T17:42:09.208Z,23.10
2019-02-07T17:44:38.194Z,21.60
2019-02-07T17:47:10.265Z,21.87
2019-02-07T17:49:38.200Z,21.10
2019-02-07T17:52:07.554Z,19.93
2019-02-07T17:54:36.623Z,21.20
2019-02-07T17:57:05.877Z,19.40
2019-02-07T17:59:34.874Z,17.83
2019-02-07T18:02:06.316Z,17.75
2019-02-07T18:04:35.343Z,17.70
2019-02-07T18:07:04.936Z,18.53
2019-02-07T18:09:33.857Z,21.00
2019-02-07T18:12:02.786Z,22.62
2019-02-07T18:14:31.664Z,21.07
2019-02-07T18:17:00.605Z,22.45
2019-02-07T18:19:29.616Z,21.68
2019-02-07T18:21:58.608Z,25.27
2019-02-07T18:24:27.845Z,22.80
2019-02-07T18:26:57.456Z,24.25
2019-02-07T18:29:26.366Z,22.50
2019-02-07T18:31:55.243Z,23.80
2019-02-07T18:34:24.444Z,25.45
2019-02-07T18:36:53.248Z,26.02
2019-02-07T18:39:22.228Z,26.27
2019-02-07T18:41:51.652Z,24.80
2019-02-07T18:44:20.541Z,22.80
2019-02-07T18:46:49.460Z,23.33
2019-02-07T18:49:18.408Z,23.60
2019-02-07T18:51:47.232Z,22.82
2019-02-07T18:54:16.115Z,24.95
2019-02-07T18:56:45.396Z,22.30
2019-02-07T18:59:14.412Z,23.43
2019-02-07T19:01:43.491Z,23.38
2019-02-07T19:04:13.380Z,25.80
2019-02-07T19:06:42.388Z,25.23
2019-02-07T19:09:11.365Z,24.07
2019-02-07T19:11:40.264Z,22.17
2019-02-07T19:14:09.452Z,21.17
2019-02-07T19:16:38.409Z,19.98
2019-02-07T19:19:07.337Z,21.20
2019-02-07T19:21:36.233Z,21.60
2019-02-07T19:24:05.723Z,19.80
2019-02-07T19:26:34.680Z,20.37
2019-02-07T19:29:04.277Z,21.15
2019-02-07T19:31:33.519Z,19.95
2019-02-07T19:34:02.464Z,19.05
2019-02-07T19:36:31.828Z,19.07
2019-02-07T19:39:00.772Z,22.10
2019-02-07T19:41:29.562Z,22.82
2019-02-07T19:43:58.629Z,20.50
2019-02-07T19:46:27.889Z,22.35
2019-02-07T19:48:56.909Z,19.60
2019-02-07T19:51:25.796Z,20.20
2019-02-07T19:53:54.796Z,20.68
2019-02-07T19:56:23.632Z,20.08
2019-02-07T19:58:52.674Z,19.75
2019-02-07T20:01:21.758Z,23.87
2019-02-07T20:03:50.858Z,20.97
2019-02-07T20:06:19.811Z,20.08
2019-02-07T20:08:48.808Z,23.27
2019-02-07T20:11:17.704Z,21.30
2019-02-07T20:13:46.690Z,20.62
2019-02-07T20:16:15.772Z,20.48
2019-02-07T20:18:45.384Z,20.52
2019-02-07T20:21:14.704Z,23.52
2019-02-07T20:23:43.950Z,21.33
2019-02-07T20:26:12.880Z,21.55
2019-02-07T20:28:42.127Z,19.60
2019-02-07T20:31:12.180Z,21.15
2019-02-07T20:33:41.464Z,21.52
2019-02-07T20:36:10.560Z,23.80
2019-02-07T20:38:39.516Z,23.18
2019-02-07T20:41:08.460Z,22.62
2019-02-07T20:43:37.900Z,20.88
2019-02-07T20:46:07.446Z,21.55
2019-02-07T20:48:36.427Z,23.67
2019-02-07T20:51:05.430Z,21.60
2019-02-07T20:53:34.232Z,19.60
2019-02-07T20:56:03.354Z,19.30
2019-02-07T20:58:32.356Z,17.52
2019-02-07T21:01:01.564Z,18.50
2019-02-07T21:03:30.844Z,18.42
2019-02-07T21:06:00.047Z,18.35
2019-02-07T21:08:29.588Z,16.97
2019-02-07T21:10:58.580Z,19.02
2019-02-07T21:13:27.564Z,17.05
2019-02-07T21:15:56.481Z,16.50
2019-02-07T21:18:25.527Z,20.10
2019-02-07T21:20:54.411Z,17.60
2019-02-07T21:23:23.324Z,18.07
2019-02-07T21:25:52.860Z,17.30
2019-02-07T21:28:22.148Z,16.77
2019-02-07T21:30:51.201Z,15.65
2019-02-07T21:33:20.149Z,15.43
2019-02-07T21:35:49.140Z,17.07
2019-02-07T21:38:18.065Z,15.35
2019-02-07T21:40:47.162Z,14.80
2019-02-07T21:43:16.448Z,16.87
2019-02-07T21:45:45.350Z,15.70
2019-02-07T21:48:14.239Z,16.40
2019-02-07T21:50:43.211Z,18.60
2019-02-07T21:53:12.172Z,16.05
2019-02-07T21:55:41.172Z,14.07
2019-02-07T21:58:12.095Z,14.60
2019-02-07T22:00:43.248Z,14.25
2019-02-07T22:03:14.084Z,14.90
2019-02-07T22:05:43.751Z,17.17
2019-02-07T22:08:12.980Z,13.18
2019-02-07T22:10:42.284Z,13.95
2019-02-07T22:13:11.881Z,13.62
2019-02-07T22:15:40.836Z,13.60
2019-02-07T22:18:10.290Z,15.85
2019-02-07T22:20:39.268Z,12.13
2019-02-07T22:23:08.260Z,11.80
2019-02-07T22:25:37.245Z,12.28
2019-02-07T22:28:07.408Z,12.88
2019-02-07T22:30:36.704Z,13.55
2019-02-07T22:33:06.300Z,11.88
2019-02-07T22:35:35.554Z,13.95
2019-02-07T22:38:05.524Z,13.95
2019-02-07T22:40:34.537Z,13.62
2019-02-07T22:43:03.776Z,18.27
2019-02-07T22:45:32.701Z,11.40
2019-02-07T22:48:01.708Z,12.75
2019-02-07T22:50:31.676Z,15.10
2019-02-07T22:53:01.277Z,11.25
2019-02-07T22:55:30.272Z,12.10
2019-02-07T22:57:59.562Z,10.65
2019-02-07T23:01:09.588Z,13.00
2019-02-07T23:03:40.596Z,9.83
2019-02-07T23:06:10.064Z,10.50
2019-02-07T23:08:39.359Z,13.53
2019-02-07T23:11:09.356Z,9.98
2019-02-07T23:13:38.428Z,8.78
2019-02-07T23:16:09.011Z,10.68
2019-02-07T23:18:38.816Z,10.50
2019-02-07T23:21:08.567Z,11.15
2019-02-07T23:23:37.540Z,8.95
2019-02-07T23:26:07.567Z,10.28
2019-02-07T23:28:37.270Z,11.78
2019-02-07T23:31:08.148Z,8.33
2019-02-07T23:33:38.144Z,10.08
2019-02-07T23:36:08.538Z,8.40
2019-02-07T23:38:37.547Z,7.72
2019-02-07T23:41:10.497Z,10.68
2019-02-07T23:43:45.966Z,8.85
2019-02-07T23:46:11.303Z,12.03
2019-02-07T23:48:40.641Z,8.78
2019-02-07T23:51:09.849Z,9.35
2019-02-07T23:53:38.832Z,10.70
2019-02-07T23:56:08.539Z,9.33
2019-02-07T23:58:37.656Z,10.88
